Time;durP1;ratioP1;P1;durP2;ratioP2;P2;SDS_P1;SDS_P2;PMS_P1;PMS_P2;Temp;Humidity;BMP_temperature;BMP_pressure;BME280_temperature;BME280_humidity;BME280_pressure;Samples;Min_cycle;Max_cycle;Signal;HPM_P1;HPM_P2
2022/11/13 00:01:09;;;;;;;24.60;19.33;;;5.70;99.90;;;;;;5056105;28;20449;-86
2022/11/13 00:03:37;;;;;;;23.23;20.07;;;5.70;99.90;;;;;;5056040;28;20570;-85
2022/11/13 00:06:04;;;;;;;23.07;20.57;;;5.60;99.90;;;;;;5057127;28;20457;-85
2022/11/13 00:08:31;;;;;;;23.70;20.20;;;5.60;99.90;;;;;;5057689;28;20480;-85
2022/11/13 00:11:03;;;;;;;24.00;21.50;;;5.60;99.90;;;;;;5058135;28;20526;-84
2022/11/13 00:13:30;;;;;;;29.00;21.17;;;5.60;99.90;;;;;;5055142;28;20461;-86
2022/11/13 00:15:59;;;;;;;24.97;20.17;;;5.50;99.90;;;;;;5059969;28;20532;-85
2022/11/13 00:18:26;;;;;;;24.73;21.30;;;5.60;99.90;;;;;;5089270;22;20495;-87
2022/11/13 00:20:54;;;;;;;24.87;22.23;;;5.60;99.90;;;;;;5051453;28;20455;-86
2022/11/13 00:23:21;;;;;;;32.00;24.53;;;5.50;99.90;;;;;;5051978;28;20447;-86
2022/11/13 00:25:47;;;;;;;28.47;23.47;;;5.50;99.90;;;;;;5052290;28;20440;-86
2022/11/13 00:28:15;;;;;;;28.23;24.87;;;5.40;99.90;;;;;;5053682;28;21037;-86
2022/11/13 00:30:41;;;;;;;24.20;21.63;;;5.40;99.90;;;;;;5075246;28;20444;-86
2022/11/13 00:33:08;;;;;;;26.00;23.40;;;5.40;99.90;;;;;;5066668;28;20444;-86
2022/11/13 00:35:35;;;;;;;28.17;23.47;;;5.30;99.90;;;;;;5052247;28;20819;-86
2022/11/13 00:38:03;;;;;;;28.87;23.47;;;5.30;99.90;;;;;;5051885;28;20484;-86
2022/11/13 00:40:30;;;;;;;26.90;23.40;;;5.30;99.90;;;;;;5051588;28;20449;-85
2022/11/13 00:42:57;;;;;;;24.27;21.77;;;5.30;99.90;;;;;;5051922;28;20445;-85
2022/11/13 00:45:24;;;;;;;25.17;22.57;;;5.30;99.90;;;;;;5051624;28;20449;-85
2022/11/13 00:47:50;;;;;;;26.07;23.23;;;5.30;99.90;;;;;;5051538;28;20460;-85
2022/11/13 00:50:17;;;;;;;28.20;22.13;;;5.30;99.90;;;;;;5051970;28;20452;-85
2022/11/13 00:52:44;;;;;;;26.33;23.60;;;5.40;99.90;;;;;;5052331;28;20456;-85
2022/11/13 00:55:12;;;;;;;27.23;22.63;;;5.40;99.90;;;;;;5051589;28;20445;-86
2022/11/13 00:57:39;;;;;;;27.57;23.07;;;5.40;99.90;;;;;;5062768;28;20474;-85
2022/11/13 01:00:07;;;;;;;28.80;21.77;;;5.50;99.90;;;;;;5076971;28;20441;-84
2022/11/13 01:02:34;;;;;;;25.70;21.93;;;5.50;99.90;;;;;;5076199;28;20484;-85
2022/11/13 01:05:00;;;;;;;26.30;21.70;;;5.40;99.90;;;;;;5061948;28;20459;-85
2022/11/13 01:07:27;;;;;;;33.50;22.87;;;5.50;99.90;;;;;;5079042;28;20477;-85
2022/11/13 01:09:54;;;;;;;31.67;21.70;;;5.50;99.90;;;;;;5077637;28;20463;-85
2022/11/13 01:12:22;;;;;;;35.13;22.70;;;5.50;99.90;;;;;;5056018;28;20459;-86
2022/11/13 01:14:49;;;;;;;66.70;25.60;;;5.50;99.90;;;;;;5056978;28;20457;-85
2022/11/13 01:17:15;;;;;;;100.37;27.70;;;5.50;99.90;;;;;;5057353;28;20472;-85
2022/11/13 01:19:42;;;;;;;83.33;28.10;;;5.40;99.90;;;;;;5054762;28;21011;-85
2022/11/13 01:22:09;;;;;;;82.83;28.33;;;5.40;99.90;;;;;;5054595;28;20455;-85
2022/11/13 01:24:36;;;;;;;70.83;24.43;;;5.40;99.90;;;;;;5056594;28;20440;-85
2022/11/13 01:27:03;;;;;;;26.60;21.87;;;5.40;99.90;;;;;;5054101;28;20464;-85
2022/11/13 01:29:31;;;;;;;36.10;22.00;;;5.40;99.90;;;;;;5065297;28;20428;-85
2022/11/13 01:31:58;;;;;;;51.47;24.60;;;5.30;99.90;;;;;;5076635;28;20447;-85
2022/11/13 01:34:25;;;;;;;34.40;23.73;;;5.30;99.90;;;;;;5056698;28;20449;-85
2022/11/13 01:36:51;;;;;;;24.57;21.03;;;5.40;99.90;;;;;;5054363;28;20469;-85
2022/11/13 01:39:18;;;;;;;22.87;19.50;;;5.40;99.90;;;;;;5054138;28;20484;-85
2022/11/13 01:41:45;;;;;;;33.43;20.93;;;5.40;99.90;;;;;;5054236;28;20806;-85
2022/11/13 01:44:14;;;;;;;34.30;22.50;;;5.40;99.90;;;;;;5054336;28;20459;-85
2022/11/13 01:46:44;;;;;;;25.13;22.00;;;5.30;99.90;;;;;;5060546;28;20464;-85
2022/11/13 01:49:20;;;;;;;33.90;21.37;;;5.30;99.90;;;;;;5079380;28;20425;-85
2022/11/13 01:51:50;;;;;;;29.70;21.93;;;5.40;99.90;;;;;;5068071;28;20444;-85
2022/11/13 01:54:21;;;;;;;45.23;22.33;;;5.40;99.90;;;;;;5054415;28;20941;-85
2022/11/13 01:56:48;;;;;;;97.90;28.97;;;5.40;99.90;;;;;;5054099;28;20460;-85
2022/11/13 01:59:18;;;;;;;236.73;37.90;;;5.30;99.90;;;;;;5057531;28;20860;-85
2022/11/13 02:01:47;;;;;;;156.43;31.67;;;5.30;99.90;;;;;;5054620;28;20440;-85
2022/11/13 02:04:13;;;;;;;151.57;33.80;;;5.20;99.90;;;;;;5053729;28;20961;-85
2022/11/13 02:06:45;;;;;;;84.40;26.10;;;5.20;99.90;;;;;;5053463;28;20468;-85
2022/11/13 02:09:13;;;;;;;33.93;23.97;;;5.10;99.90;;;;;;5054059;28;20444;-85
2022/11/13 02:11:41;;;;;;;129.73;32.17;;;5.10;99.90;;;;;;5054275;28;20445;-85
2022/11/13 02:14:09;;;;;;;63.70;25.03;;;5.20;99.90;;;;;;5054270;28;20445;-85
2022/11/13 02:16:37;;;;;;;92.43;27.47;;;5.20;99.90;;;;;;5054017;28;21002;-85
2022/11/13 02:19:12;;;;;;;39.20;23.53;;;5.20;99.90;;;;;;5053592;28;20877;-85
2022/11/13 02:21:47;;;;;;;119.60;28.73;;;5.20;99.90;;;;;;5054222;28;20452;-84
2022/11/13 02:24:21;;;;;;;172.37;32.20;;;5.20;99.90;;;;;;5054430;28;20459;-85
2022/11/13 02:26:50;;;;;;;118.93;30.97;;;5.20;99.90;;;;;;5054059;28;20476;-85
2022/11/13 02:29:17;;;;;;;199.77;34.07;;;5.20;99.90;;;;;;5054192;28;20436;-85
2022/11/13 02:31:44;;;;;;;130.83;27.77;;;5.20;99.90;;;;;;5054147;28;20817;-85
2022/11/13 02:34:11;;;;;;;81.00;25.93;;;5.10;99.90;;;;;;5054133;28;20449;-85
2022/11/13 02:36:37;;;;;;;47.57;24.93;;;5.10;99.90;;;;;;5054122;28;20445;-85
2022/11/13 02:39:08;;;;;;;28.17;21.33;;;5.20;99.90;;;;;;5053080;28;20502;-84
2022/11/13 02:41:37;;;;;;;24.73;20.80;;;5.20;99.90;;;;;;5055853;28;20894;-84
2022/11/13 02:44:04;;;;;;;43.27;21.57;;;5.20;99.90;;;;;;5068345;28;20449;-84
2022/11/13 02:46:31;;;;;;;20.77;18.57;;;5.20;99.90;;;;;;5074959;28;20425;-84
2022/11/13 02:48:58;;;;;;;102.00;26.77;;;5.20;99.90;;;;;;5069835;28;20445;-84
2022/11/13 02:51:24;;;;;;;61.87;22.97;;;5.20;99.90;;;;;;5054094;28;20790;-85
2022/11/13 02:53:51;;;;;;;56.67;24.97;;;5.10;99.90;;;;;;5073690;28;20437;-84
2022/11/13 02:56:18;;;;;;;32.23;21.33;;;5.10;99.90;;;;;;5070874;28;20456;-84
2022/11/13 02:58:46;;;;;;;35.63;21.77;;;5.10;99.90;;;;;;5071595;28;20488;-84
2022/11/13 03:01:13;;;;;;;47.43;21.00;;;5.10;99.90;;;;;;5073046;28;20455;-85
2022/11/13 03:03:40;;;;;;;26.77;21.33;;;5.10;99.90;;;;;;5053313;28;20440;-85
2022/11/13 03:06:06;;;;;;;83.17;22.47;;;5.10;99.90;;;;;;5052552;28;20452;-85
2022/11/13 03:08:33;;;;;;;57.77;22.20;;;5.10;99.90;;;;;;5052232;28;20473;-85
2022/11/13 03:11:00;;;;;;;36.13;21.47;;;5.10;99.90;;;;;;5052698;28;20455;-85
2022/11/13 03:13:28;;;;;;;102.23;24.67;;;5.10;99.90;;;;;;5061062;28;20445;-85
2022/11/13 03:15:56;;;;;;;62.07;20.43;;;5.10;99.90;;;;;;5075394;28;20421;-84
2022/11/13 03:18:22;;;;;;;22.07;19.70;;;5.00;99.90;;;;;;5055064;28;20488;-85
2022/11/13 03:20:52;;;;;;;20.60;16.50;;;5.00;99.90;;;;;;5052515;28;20449;-85
2022/11/13 03:23:19;;;;;;;183.47;32.83;;;5.00;99.90;;;;;;5052837;28;20445;-85
2022/11/13 03:25:46;;;;;;;102.43;25.33;;;5.00;99.90;;;;;;5056230;28;20952;-85
2022/11/13 03:28:12;;;;;;;220.27;32.80;;;5.00;99.90;;;;;;5052142;28;20473;-85
2022/11/13 03:30:39;;;;;;;39.40;19.50;;;5.00;99.90;;;;;;5052104;28;20453;-85
2022/11/13 03:33:07;;;;;;;54.77;21.20;;;4.90;99.90;;;;;;5053522;28;20456;-85
2022/11/13 03:35:34;;;;;;;159.77;26.23;;;4.90;99.90;;;;;;5069996;28;20448;-85
2022/11/13 03:38:01;;;;;;;89.73;23.37;;;4.80;99.90;;;;;;5060841;28;20500;-85
2022/11/13 03:40:28;;;;;;;35.30;19.90;;;4.80;99.90;;;;;;5064204;28;20456;-85
2022/11/13 03:42:55;;;;;;;83.57;24.30;;;4.80;99.90;;;;;;5077058;28;20451;-85
2022/11/13 03:45:22;;;;;;;114.93;25.13;;;4.80;99.90;;;;;;5059839;28;20455;-85
2022/11/13 03:47:49;;;;;;;127.10;24.73;;;4.80;99.90;;;;;;5052676;28;20949;-85
2022/11/13 03:50:17;;;;;;;114.87;23.77;;;4.80;99.90;;;;;;5052674;28;20448;-85
2022/11/13 03:52:44;;;;;;;168.27;28.67;;;4.80;99.90;;;;;;5052262;28;20815;-85
2022/11/13 03:55:10;;;;;;;142.60;29.57;;;4.80;99.90;;;;;;5052797;28;20449;-85
2022/11/13 03:57:37;;;;;;;72.73;25.93;;;4.70;99.90;;;;;;5051770;28;20479;-84
2022/11/13 04:00:05;;;;;;;153.13;28.30;;;4.70;99.90;;;;;;5051822;28;20491;-84
2022/11/13 04:02:31;;;;;;;68.43;21.93;;;4.70;99.90;;;;;;5052041;28;20964;-85
2022/11/13 04:04:58;;;;;;;108.03;25.20;;;4.70;99.90;;;;;;5052130;28;21054;-85
2022/11/13 04:07:26;;;;;;;90.43;22.77;;;4.70;99.90;;;;;;5053738;28;20464;-85
2022/11/13 04:09:53;;;;;;;43.97;20.20;;;4.70;99.90;;;;;;5068740;28;20440;-84
2022/11/13 04:12:20;;;;;;;104.63;22.97;;;4.70;99.90;;;;;;5074047;28;20455;-84
2022/11/13 04:14:46;;;;;;;54.07;24.53;;;4.70;99.90;;;;;;5061633;28;20446;-84
2022/11/13 04:17:13;;;;;;;50.43;22.10;;;4.70;99.90;;;;;;5051573;28;20473;-84
2022/11/13 04:19:40;;;;;;;60.47;20.70;;;4.80;99.90;;;;;;5051485;28;20487;-84
2022/11/13 04:22:07;;;;;;;61.90;21.07;;;4.70;99.90;;;;;;5052133;28;20445;-84
2022/11/13 04:24:35;;;;;;;53.43;23.10;;;4.70;99.90;;;;;;5052305;28;20448;-86
2022/11/13 04:27:02;;;;;;;78.83;22.40;;;4.80;99.90;;;;;;5051640;28;20548;-85
2022/11/13 04:29:28;;;;;;;50.30;21.40;;;4.80;99.90;;;;;;5052033;28;20449;-85
2022/11/13 04:31:55;;;;;;;98.17;25.10;;;4.80;99.90;;;;;;5055830;28;20479;-85
2022/11/13 04:34:22;;;;;;;39.77;19.73;;;4.80;99.90;;;;;;5055996;28;20863;-85
2022/11/13 04:36:49;;;;;;;43.63;22.50;;;4.80;99.90;;;;;;5055103;28;20839;-85
2022/11/13 04:39:15;;;;;;;61.70;20.83;;;4.80;99.90;;;;;;5055487;28;20480;-85
2022/11/13 04:44:27;;;;;;;80.70;26.47;;;4.90;99.90;;;;;;5034102;28;20435;-85
2022/11/13 04:46:54;;;;;;;37.97;21.87;;;4.90;99.90;;;;;;5055088;28;20456;-85
2022/11/13 04:49:20;;;;;;;114.37;26.77;;;4.90;99.90;;;;;;5055254;28;20973;-85
2022/11/13 04:51:47;;;;;;;71.10;24.70;;;4.90;99.90;;;;;;5059423;28;20441;-85
2022/11/13 04:54:14;;;;;;;46.90;23.47;;;4.80;99.90;;;;;;5055317;28;20467;-85
2022/11/13 04:56:42;;;;;;;64.53;24.60;;;4.80;99.90;;;;;;5069021;28;20464;-85
2022/11/13 04:59:09;;;;;;;34.93;20.60;;;4.80;99.90;;;;;;5076653;28;20464;-85
2022/11/13 05:01:36;;;;;;;48.67;22.33;;;4.80;99.90;;;;;;5056111;28;20455;-84
2022/11/13 05:04:03;;;;;;;61.63;21.63;;;4.90;99.90;;;;;;5054796;28;20453;-85
2022/11/13 05:06:30;;;;;;;85.13;23.97;;;4.90;99.90;;;;;;5055165;28;20440;-85
2022/11/13 05:08:57;;;;;;;40.53;21.77;;;4.90;99.90;;;;;;5062526;28;20420;-85
2022/11/13 05:11:24;;;;;;;62.07;22.87;;;5.00;99.90;;;;;;5079758;28;20496;-85
2022/11/13 05:13:52;;;;;;;41.07;20.47;;;4.90;99.90;;;;;;5064111;28;20437;-85
2022/11/13 05:16:19;;;;;;;43.57;21.50;;;4.90;99.90;;;;;;5061431;28;20451;-85
2022/11/13 05:18:45;;;;;;;29.53;21.07;;;4.90;99.90;;;;;;5054713;28;20480;-85
2022/11/13 05:21:12;;;;;;;30.07;20.60;;;4.90;99.90;;;;;;5055070;28;20455;-84
2022/11/13 05:23:39;;;;;;;44.27;22.80;;;4.90;99.90;;;;;;5072030;28;20441;-84
2022/11/13 05:26:08;;;;;;;55.47;21.70;;;4.90;99.90;;;;;;5073765;28;20449;-83
2022/11/13 05:28:35;;;;;;;27.90;19.83;;;4.80;99.90;;;;;;5056708;28;20480;-84
2022/11/13 05:31:09;;;;;;;36.83;21.47;;;4.80;99.90;;;;;;5056099;28;20949;-84
2022/11/13 05:33:37;;;;;;;26.17;19.37;;;4.90;99.90;;;;;;5063536;28;20448;-85
2022/11/13 05:36:05;;;;;;;25.00;19.47;;;4.90;99.90;;;;;;5078421;28;20437;-85
2022/11/13 05:38:32;;;;;;;30.23;22.50;;;4.90;99.90;;;;;;5062663;28;20469;-85
2022/11/13 05:41:03;;;;;;;21.50;19.30;;;5.00;99.90;;;;;;5055886;28;20489;-85
2022/11/13 05:43:30;;;;;;;20.67;17.60;;;5.00;99.90;;;;;;5055871;28;20441;-85
2022/11/13 05:46:02;;;;;;;19.10;17.20;;;5.10;99.90;;;;;;5054881;28;20453;-84
2022/11/13 05:48:30;;;;;;;20.90;17.70;;;5.10;99.90;;;;;;5055603;28;20465;-85
2022/11/13 05:51:01;;;;;;;17.57;15.77;;;5.10;99.90;;;;;;5054957;28;20488;-85
2022/11/13 05:53:28;;;;;;;18.77;16.30;;;5.10;99.90;;;;;;5056241;28;20446;-85
2022/11/13 05:55:59;;;;;;;17.33;15.73;;;5.10;99.90;;;;;;5054728;28;20449;-85
2022/11/13 05:58:26;;;;;;;19.60;17.60;;;5.10;99.90;;;;;;5055138;28;20515;-85
2022/11/13 06:00:52;;;;;;;16.87;15.17;;;5.00;99.90;;;;;;5055234;28;20449;-85
2022/11/13 06:03:19;;;;;;;15.83;14.17;;;5.00;99.90;;;;;;5057720;28;20494;-85
2022/11/13 06:05:47;;;;;;;14.83;13.40;;;5.00;99.90;;;;;;5054956;28;20456;-85
2022/11/13 06:08:14;;;;;;;15.13;13.77;;;5.00;99.90;;;;;;5057566;28;20468;-85
2022/11/13 06:10:41;;;;;;;15.07;13.70;;;4.90;99.90;;;;;;5074405;28;20531;-84
2022/11/13 06:13:08;;;;;;;15.07;13.47;;;4.90;99.90;;;;;;5064357;28;21146;-84
2022/11/13 06:15:35;;;;;;;13.87;12.57;;;4.90;99.90;;;;;;5058504;28;20441;-85
2022/11/13 06:18:01;;;;;;;14.10;12.70;;;4.80;99.90;;;;;;5061135;28;20485;-85
2022/11/13 06:20:28;;;;;;;12.30;11.23;;;4.80;99.90;;;;;;5066491;28;20513;-85
2022/11/13 06:22:58;;;;;;;13.43;12.23;;;4.80;99.90;;;;;;5066384;28;20451;-85
2022/11/13 06:25:24;;;;;;;13.70;12.30;;;4.80;99.90;;;;;;5055487;28;20441;-85
2022/11/13 06:27:53;;;;;;;13.47;12.27;;;4.80;99.90;;;;;;5054125;28;20503;-84
2022/11/13 06:30:20;;;;;;;14.90;12.80;;;4.70;99.90;;;;;;5054441;28;20504;-85
2022/11/13 06:32:52;;;;;;;19.03;14.23;;;4.70;99.90;;;;;;5053623;28;20445;-85
2022/11/13 06:35:19;;;;;;;21.87;14.47;;;4.70;99.90;;;;;;5054112;28;20845;-85
2022/11/13 06:37:46;;;;;;;21.53;14.27;;;4.70;99.90;;;;;;5055720;28;20475;-85
2022/11/13 06:40:14;;;;;;;17.03;13.27;;;4.60;99.90;;;;;;5072933;28;20444;-85
2022/11/13 06:42:41;;;;;;;15.63;12.90;;;4.50;99.90;;;;;;5063352;28;20452;-85
2022/11/13 06:45:09;;;;;;;14.97;13.57;;;4.50;99.90;;;;;;5054261;28;20512;-85
2022/11/13 06:47:35;;;;;;;14.83;13.53;;;4.50;99.90;;;;;;5053742;28;20483;-85
2022/11/13 06:50:02;;;;;;;14.30;12.90;;;4.50;99.90;;;;;;5053187;28;20479;-86
2022/11/13 06:52:29;;;;;;;14.07;12.73;;;4.60;99.90;;;;;;5053332;28;20817;-85
2022/11/13 06:54:56;;;;;;;13.87;12.57;;;4.60;99.90;;;;;;5052248;28;20448;-85
2022/11/13 06:57:24;;;;;;;13.53;12.23;;;4.60;99.90;;;;;;5065690;28;20475;-85
2022/11/13 06:59:50;;;;;;;13.40;12.20;;;4.60;99.90;;;;;;5072950;28;20441;-85
2022/11/13 07:02:17;;;;;;;12.37;11.37;;;4.60;99.90;;;;;;5063934;28;20436;-85
2022/11/13 07:04:44;;;;;;;12.37;11.17;;;4.60;99.90;;;;;;5055924;28;20449;-85
2022/11/13 07:07:11;;;;;;;13.60;12.33;;;4.50;99.90;;;;;;5054173;28;20465;-85
2022/11/13 07:09:37;;;;;;;13.27;12.00;;;4.50;99.90;;;;;;5053701;28;20490;-85
2022/11/13 07:12:04;;;;;;;14.40;11.80;;;4.50;99.90;;;;;;5053070;28;20476;-86
2022/11/13 07:14:33;;;;;;;11.63;10.67;;;4.40;99.90;;;;;;5053530;28;20957;-86
2022/11/13 07:16:59;;;;;;;12.63;11.43;;;4.30;99.90;;;;;;5052126;28;20473;-85
2022/11/13 07:19:26;;;;;;;13.60;12.23;;;4.40;99.90;;;;;;5052583;28;20448;-86
2022/11/13 07:21:53;;;;;;;15.33;12.70;;;4.40;99.90;;;;;;5065963;28;20429;-86
2022/11/13 07:24:19;;;;;;;15.00;13.50;;;4.40;99.90;;;;;;5075628;28;20431;-86
2022/11/13 07:26:46;;;;;;;14.17;12.77;;;4.20;99.90;;;;;;5053902;28;20841;-86
2022/11/13 07:29:14;;;;;;;13.03;11.83;;;4.30;99.90;;;;;;5052691;28;20448;-86
2022/11/13 07:31:42;;;;;;;16.20;12.37;;;4.40;99.90;;;;;;5073888;28;20437;-86
2022/11/13 07:34:09;;;;;;;14.23;12.07;;;4.40;99.90;;;;;;5070068;28;20445;-86
2022/11/13 07:36:35;;;;;;;13.20;11.90;;;4.50;99.90;;;;;;5057723;28;20457;-85
2022/11/13 07:39:02;;;;;;;16.13;14.53;;;4.50;99.90;;;;;;5054403;28;20449;-86
2022/11/13 07:41:29;;;;;;;13.13;11.93;;;4.50;99.90;;;;;;5058271;28;20432;-86
2022/11/13 07:43:56;;;;;;;12.10;10.90;;;4.60;99.90;;;;;;5075956;28;20621;-85
2022/11/13 07:46:22;;;;;;;12.33;11.13;;;4.70;99.90;;;;;;5065457;28;20447;-86
2022/11/13 07:48:51;;;;;;;11.87;10.30;;;4.70;99.90;;;;;;5053866;28;20445;-85
2022/11/13 07:51:17;;;;;;;11.63;10.57;;;4.80;99.90;;;;;;5052952;28;21015;-85
2022/11/13 07:53:44;;;;;;;15.10;11.80;;;4.90;99.90;;;;;;5052155;28;20445;-85
2022/11/13 07:56:11;;;;;;;21.23;10.60;;;4.90;99.90;;;;;;5052351;28;20500;-86
2022/11/13 07:58:38;;;;;;;19.57;11.40;;;4.90;99.90;;;;;;5051712;28;20473;-86
2022/11/13 08:01:06;;;;;;;38.03;13.20;;;4.80;99.90;;;;;;5052427;28;20437;-85
2022/11/13 08:03:32;;;;;;;15.17;11.90;;;4.80;99.90;;;;;;5077096;22;20501;-85
2022/11/13 08:06:05;;;;;;;13.50;12.20;;;4.80;99.90;;;;;;5038220;28;20459;-85
2022/11/13 08:08:33;;;;;;;14.53;13.23;;;4.70;99.90;;;;;;5038534;28;20445;-85
2022/11/13 08:11:04;;;;;;;12.63;11.33;;;4.60;99.90;;;;;;5039322;28;20488;-85
2022/11/13 08:13:30;;;;;;;14.40;13.10;;;4.60;99.90;;;;;;5041553;28;20470;-85
2022/11/13 08:15:59;;;;;;;14.10;12.70;;;4.80;99.90;;;;;;5052557;28;20445;-84
2022/11/13 08:18:27;;;;;;;14.93;13.10;;;4.80;99.90;;;;;;5046914;28;20441;-84
2022/11/13 08:20:54;;;;;;;12.73;11.63;;;4.90;99.90;;;;;;5041266;28;20457;-84
2022/11/13 08:23:22;;;;;;;13.00;11.70;;;5.00;99.90;;;;;;5043342;28;20473;-84
2022/11/13 08:25:49;;;;;;;11.60;10.57;;;5.00;99.90;;;;;;5042638;28;20441;-84
2022/11/13 08:28:16;;;;;;;11.80;10.70;;;5.10;99.90;;;;;;5045278;28;20947;-84
2022/11/13 08:30:44;;;;;;;14.63;13.33;;;5.20;99.90;;;;;;5050289;28;20481;-84
2022/11/13 08:33:11;;;;;;;13.40;12.10;;;5.20;99.90;;;;;;5055910;28;20449;-85
2022/11/13 08:35:37;;;;;;;13.43;12.10;;;5.20;99.90;;;;;;5045810;28;20453;-85
2022/11/13 08:38:06;;;;;;;10.53;9.43;;;5.30;99.90;;;;;;5040271;28;20449;-85
2022/11/13 08:40:34;;;;;;;12.87;11.57;;;5.30;99.90;;;;;;5039249;28;20453;-85
2022/11/13 08:43:02;;;;;;;12.50;11.20;;;5.40;99.90;;;;;;5040030;28;20472;-84
2022/11/13 08:45:30;;;;;;;12.60;11.40;;;5.40;99.90;;;;;;5041473;28;20540;-83
2022/11/13 08:48:00;;;;;;;12.60;11.40;;;5.50;99.90;;;;;;5061664;28;20437;-85
2022/11/13 08:50:27;;;;;;;14.23;12.73;;;5.60;99.90;;;;;;5067330;28;20465;-83
2022/11/13 08:52:54;;;;;;;12.70;11.60;;;5.70;99.90;;;;;;5068095;28;20442;-83
2022/11/13 08:55:21;;;;;;;14.30;12.13;;;5.70;99.90;;;;;;5065646;28;20480;-84
2022/11/13 08:57:50;;;;;;;13.27;12.10;;;5.90;99.90;;;;;;5055079;28;20440;-85
2022/11/13 09:00:17;;;;;;;14.43;13.03;;;5.90;99.90;;;;;;5050239;28;20934;-83
2022/11/13 09:02:44;;;;;;;13.97;12.53;;;5.90;99.90;;;;;;5053638;28;20637;-85
2022/11/13 09:05:11;;;;;;;13.57;12.27;;;5.90;99.90;;;;;;5051198;28;20464;-83
2022/11/13 09:07:38;;;;;;;12.77;11.50;;;5.90;99.90;;;;;;5051911;28;20459;-83
2022/11/13 09:10:06;;;;;;;12.13;10.93;;;5.90;99.90;;;;;;5052722;28;20484;-83
2022/11/13 09:12:32;;;;;;;11.90;10.70;;;5.90;99.90;;;;;;5054474;28;20499;-84
2022/11/13 09:15:01;;;;;;;12.20;11.10;;;6.00;99.90;;;;;;5065050;28;20447;-83
2022/11/13 09:17:27;;;;;;;12.50;11.30;;;5.90;99.90;;;;;;5067824;28;20439;-83
2022/11/13 09:19:54;;;;;;;12.93;11.37;;;5.90;99.90;;;;;;5062030;28;20459;-83
2022/11/13 09:22:21;;;;;;;11.70;10.60;;;6.00;99.90;;;;;;5049145;28;20433;-85
2022/11/13 09:24:48;;;;;;;11.93;10.87;;;6.00;99.90;;;;;;5048209;28;20845;-84
2022/11/13 09:27:14;;;;;;;12.23;11.03;;;6.00;99.90;;;;;;5052089;28;20443;-83
2022/11/13 09:29:41;;;;;;;12.30;11.20;;;6.00;99.90;;;;;;5052121;28;20461;-84
2022/11/13 09:32:09;;;;;;;12.63;11.43;;;6.00;99.90;;;;;;5058812;28;20540;-84
2022/11/13 09:34:36;;;;;;;12.47;11.37;;;6.00;99.90;;;;;;5056833;28;20965;-83
2022/11/13 09:37:03;;;;;;;12.40;11.30;;;6.10;99.90;;;;;;5050428;28;20459;-83
2022/11/13 09:39:30;;;;;;;12.07;10.97;;;6.20;99.90;;;;;;5051925;28;20437;-84
2022/11/13 09:42:01;;;;;;;12.27;11.07;;;6.50;99.90;;;;;;5046391;28;20446;-84
2022/11/13 09:44:34;;;;;;;12.40;11.30;;;6.60;99.90;;;;;;5046598;28;20461;-84
2022/11/13 09:47:08;;;;;;;12.30;11.10;;;6.90;99.90;;;;;;5048119;28;20443;-83
2022/11/13 09:49:41;;;;;;;13.10;11.80;;;7.50;99.90;;;;;;5046680;28;20441;-83
2022/11/13 09:52:14;;;;;;;13.40;12.13;;;7.90;99.90;;;;;;5044853;28;20492;-84
2022/11/13 09:54:40;;;;;;;12.60;11.50;;;8.00;99.90;;;;;;5046863;28;20470;-83
2022/11/13 09:57:19;;;;;;;12.47;11.33;;;8.30;99.90;;;;;;5047089;28;20438;-83
2022/11/13 09:59:50;;;;;;;13.87;12.47;;;8.80;99.90;;;;;;5047297;28;20444;-84
2022/11/13 10:02:22;;;;;;;12.30;11.20;;;8.60;99.90;;;;;;5052269;28;20438;-82
2022/11/13 10:04:58;;;;;;;13.03;11.80;;;8.70;99.90;;;;;;5061506;28;20469;-82
2022/11/13 10:07:34;;;;;;;11.87;10.77;;;9.20;99.90;;;;;;5055054;28;20441;-82
2022/11/13 10:10:20;;;;;;;12.33;11.27;;;9.80;99.90;;;;;;5049821;28;20440;-81
2022/11/13 10:12:52;;;;;;;12.63;11.43;;;10.70;99.90;;;;;;5048051;28;20433;-82
2022/11/13 10:15:20;;;;;;;12.30;11.20;;;10.90;99.90;;;;;;5043942;28;20465;-82
2022/11/13 10:17:51;;;;;;;11.90;10.90;;;10.70;99.90;;;;;;5049546;28;20436;-82
2022/11/13 10:20:23;;;;;;;12.37;11.30;;;10.60;99.90;;;;;;5058965;28;20434;-82
2022/11/13 10:22:51;;;;;;;12.13;11.03;;;10.10;99.90;;;;;;5059349;28;20432;-81
2022/11/13 10:25:20;;;;;;;11.30;10.20;;;10.20;99.90;;;;;;5050239;28;20464;-82
2022/11/13 10:27:53;;;;;;;11.80;10.70;;;10.50;99.90;;;;;;5049205;28;20542;-82
2022/11/13 10:30:28;;;;;;;11.90;10.90;;;10.60;99.90;;;;;;5047853;28;20919;-81
2022/11/13 10:33:01;;;;;;;12.40;11.30;;;11.70;99.90;;;;;;5047907;28;20452;-82
2022/11/13 10:35:45;;;;;;;11.60;10.60;;;13.10;99.90;;;;;;5046728;28;20440;-83
2022/11/13 10:38:19;;;;;;;11.10;10.20;;;13.40;98.20;;;;;;5045843;28;20438;-82
2022/11/13 10:40:45;;;;;;;10.57;9.67;;;13.40;97.60;;;;;;5046223;28;20440;-82
2022/11/13 10:43:16;;;;;;;10.67;9.67;;;15.10;96.30;;;;;;5046737;28;20444;-82
2022/11/13 10:45:52;;;;;;;11.47;10.47;;;17.30;92.70;;;;;;5045678;28;20441;-82
2022/11/13 10:48:21;;;;;;;10.37;9.50;;;19.70;85.10;;;;;;5044884;28;20448;-82
2022/11/13 10:50:56;;;;;;;13.70;12.60;;;21.70;78.40;;;;;;5043488;28;20509;-83
2022/11/13 10:53:24;;;;;;;10.50;9.70;;;23.40;69.80;;;;;;5045026;28;20469;-82
2022/11/13 10:55:56;;;;;;;10.37;9.57;;;24.60;61.90;;;;;;5055428;28;20523;-83
2022/11/13 10:58:23;;;;;;;11.83;10.93;;;24.80;58.00;;;;;;5056643;28;20474;-84
2022/11/13 11:00:51;;;;;;;10.13;9.33;;;23.60;58.90;;;;;;5058986;28;20434;-82
2022/11/13 11:03:20;;;;;;;9.97;9.27;;;24.40;57.70;;;;;;5048019;28;20552;-82
2022/11/13 11:06:00;;;;;;;10.57;9.77;;;25.20;56.50;;;;;;5049314;28;20437;-82
2022/11/13 11:08:33;;;;;;;10.70;10.00;;;25.40;54.60;;;;;;5069429;28;20435;-86
2022/11/13 11:13:46;;;;;;;11.40;10.50;;;22.40;59.90;;;;;;5056217;28;20484;-82
2022/11/13 11:16:19;;;;;;;10.43;9.73;;;23.00;58.10;;;;;;5049685;28;20520;-82
2022/11/13 11:18:52;;;;;;;11.00;10.10;;;24.50;56.60;;;;;;5045477;28;20448;-82
2022/11/13 11:21:24;;;;;;;10.30;9.60;;;25.00;56.30;;;;;;5046035;28;20459;-83
2022/11/13 11:24:04;;;;;;;11.03;10.33;;;26.10;54.90;;;;;;5042916;28;20469;-83
2022/11/13 11:26:35;;;;;;;11.03;10.27;;;27.10;51.90;;;;;;5043861;28;20437;-82
2022/11/13 11:29:12;;;;;;;10.60;9.80;;;26.20;51.90;;;;;;5042630;28;20442;-83
2022/11/13 11:31:47;;;;;;;11.77;10.90;;;26.60;52.40;;;;;;5051431;28;20478;-83
2022/11/13 11:34:20;;;;;;;10.33;9.57;;;26.80;50.50;;;;;;5047797;28;20459;-83
2022/11/13 11:36:57;;;;;;;11.40;10.50;;;26.30;51.70;;;;;;5041229;28;20450;-83
2022/11/13 11:39:29;;;;;;;10.93;10.13;;;27.10;50.30;;;;;;5041502;28;20442;-82
2022/11/13 11:42:03;;;;;;;12.20;11.30;;;27.20;50.10;;;;;;5043768;28;20444;-83
2022/11/13 11:44:37;;;;;;;10.30;9.50;;;28.20;49.50;;;;;;5043635;28;20473;-83
2022/11/13 11:47:04;;;;;;;10.07;9.37;;;28.30;49.00;;;;;;5041009;28;20975;-82
2022/11/13 11:49:32;;;;;;;11.60;10.70;;;28.40;48.10;;;;;;5045358;28;20932;-83
2022/11/13 11:52:11;;;;;;;11.77;10.87;;;29.10;47.00;;;;;;5046271;28;20484;-84
2022/11/13 11:54:42;;;;;;;10.50;9.70;;;27.90;47.00;;;;;;5046625;28;21005;-83
2022/11/13 11:57:34;;;;;;;11.33;10.50;;;26.60;48.20;;;;;;5049912;28;20451;-85
2022/11/13 12:00:20;;;;;;;10.30;9.60;;;26.80;49.00;;;;;;5055887;28;20442;-82
2022/11/13 12:03:22;;;;;;;10.90;10.10;;;27.30;49.80;;;;;;5074594;28;20436;-87
2022/11/13 12:05:59;;;;;;;11.40;10.47;;;28.10;47.50;;;;;;5060255;28;20936;-83
2022/11/13 12:08:36;;;;;;;11.40;10.53;;;28.30;47.00;;;;;;5042631;28;21284;-83
2022/11/13 12:11:12;;;;;;;9.57;8.87;;;27.50;46.70;;;;;;5041165;28;20475;-84
2022/11/13 12:13:48;;;;;;;10.40;9.60;;;27.90;47.90;;;;;;5059732;28;20443;-83
2022/11/13 12:16:21;;;;;;;11.47;10.60;;;28.00;46.50;;;;;;5062050;28;20445;-84
2022/11/13 12:18:55;;;;;;;10.23;9.23;;;27.70;47.50;;;;;;5041926;28;20453;-83
2022/11/13 12:21:24;;;;;;;9.43;8.73;;;27.80;46.70;;;;;;5041649;28;20441;-84
2022/11/13 12:24:05;;;;;;;10.40;9.60;;;27.10;47.60;;;;;;5042758;28;20556;-83
2022/11/13 12:26:41;;;;;;;9.63;8.93;;;25.70;48.80;;;;;;5043993;28;20449;-83
2022/11/13 12:29:20;;;;;;;9.90;9.10;;;23.80;51.40;;;;;;5042355;28;20437;-84
2022/11/13 12:32:01;;;;;;;10.10;9.30;;;22.00;54.40;;;;;;5041909;28;20486;-90
2022/11/13 12:34:31;;;;;;;11.40;10.50;;;20.90;56.60;;;;;;5040761;28;20952;-84
2022/11/13 12:36:59;;;;;;;9.70;8.90;;;20.10;58.40;;;;;;5042439;28;20847;-83
2022/11/13 12:39:42;;;;;;;10.73;9.83;;;18.90;59.90;;;;;;5043226;28;20441;-84
2022/11/13 12:42:19;;;;;;;11.53;10.47;;;18.00;63.20;;;;;;5041267;28;20462;-84
2022/11/13 12:44:54;;;;;;;11.17;10.10;;;17.00;66.70;;;;;;5064008;28;20614;-83
2022/11/13 12:47:21;;;;;;;11.33;10.33;;;16.10;70.50;;;;;;5049978;28;20437;-83
2022/11/13 12:49:59;;;;;;;11.20;10.30;;;15.40;73.30;;;;;;5045333;28;20441;-84